sensor_id;sensor_type;location;lat;lon;timestamp;P1;durP1;ratioP1;P2;durP2;ratioP2
79130;SDS011;72396;45.194;9.142;2023-11-21T00:02:24;8.25;;;6.68;;
79130;SDS011;72396;45.194;9.142;2023-11-21T00:04:50;9.80;;;6.07;;
79130;SDS011;72396;45.194;9.142;2023-11-21T00:07:17;10.23;;;7.18;;
79130;SDS011;72396;45.194;9.142;2023-11-21T00:09:42;10.20;;;6.32;;
79130;SDS011;72396;45.194;9.142;2023-11-21T00:12:08;9.18;;;6.45;;
79130;SDS011;72396;45.194;9.142;2023-11-21T00:14:36;8.27;;;6.22;;
79130;SDS011;72396;45.194;9.142;2023-11-21T00:17:03;10.98;;;6.20;;
79130;SDS011;72396;45.194;9.142;2023-11-21T00:19:29;8.90;;;6.05;;
79130;SDS011;72396;45.194;9.142;2023-11-21T00:21:54;8.90;;;6.20;;
79130;SDS011;72396;45.194;9.142;2023-11-21T00:24:19;8.70;;;6.32;;
79130;SDS011;72396;45.194;9.142;2023-11-21T00:26:45;9.48;;;6.07;;
79130;SDS011;72396;45.194;9.142;2023-11-21T00:29:11;8.57;;;6.15;;
79130;SDS011;72396;45.194;9.142;2023-11-21T00:31:36;10.63;;;6.55;;
79130;SDS011;72396;45.194;9.142;2023-11-21T00:34:02;9.80;;;6.82;;
79130;SDS011;72396;45.194;9.142;2023-11-21T00:36:30;7.93;;;5.78;;
79130;SDS011;72396;45.194;9.142;2023-11-21T00:38:56;8.60;;;5.65;;
79130;SDS011;72396;45.194;9.142;2023-11-21T00:41:21;9.55;;;6.25;;
79130;SDS011;72396;45.194;9.142;2023-11-21T00:43:46;8.18;;;6.05;;
79130;SDS011;72396;45.194;9.142;2023-11-21T00:46:11;8.52;;;6.35;;
79130;SDS011;72396;45.194;9.142;2023-11-21T00:48:37;10.00;;;7.00;;
79130;SDS011;72396;45.194;9.142;2023-11-21T00:51:02;9.18;;;5.95;;
79130;SDS011;72396;45.194;9.142;2023-11-21T00:53:28;9.27;;;5.97;;
79130;SDS011;72396;45.194;9.142;2023-11-21T00:55:53;8.90;;;6.10;;
79130;SDS011;72396;45.194;9.142;2023-11-21T00:58:22;8.43;;;6.43;;
79130;SDS011;72396;45.194;9.142;2023-11-21T01:00:48;8.93;;;5.60;;
79130;SDS011;72396;45.194;9.142;2023-11-21T01:03:14;8.57;;;6.00;;
79130;SDS011;72396;45.194;9.142;2023-11-21T01:05:39;9.45;;;6.35;;
79130;SDS011;72396;45.194;9.142;2023-11-21T01:08:04;7.95;;;5.90;;
79130;SDS011;72396;45.194;9.142;2023-11-21T01:10:30;8.13;;;5.82;;
79130;SDS011;72396;45.194;9.142;2023-11-21T01:12:56;7.45;;;5.60;;
79130;SDS011;72396;45.194;9.142;2023-11-21T01:15:22;9.48;;;5.50;;
79130;SDS011;72396;45.194;9.142;2023-11-21T01:17:48;9.10;;;5.65;;
79130;SDS011;72396;45.194;9.142;2023-11-21T01:20:13;7.88;;;6.03;;
79130;SDS011;72396;45.194;9.142;2023-11-21T01:22:39;8.48;;;5.45;;
79130;SDS011;72396;45.194;9.142;2023-11-21T01:25:05;8.07;;;5.80;;
79130;SDS011;72396;45.194;9.142;2023-11-21T01:27:32;10.50;;;6.30;;
79130;SDS011;72396;45.194;9.142;2023-11-21T01:29:57;9.02;;;6.03;;
79130;SDS011;72396;45.194;9.142;2023-11-21T01:32:22;7.57;;;5.78;;
79130;SDS011;72396;45.194;9.142;2023-11-21T01:34:49;8.77;;;5.43;;
79130;SDS011;72396;45.194;9.142;2023-11-21T01:37:15;9.35;;;6.35;;
79130;SDS011;72396;45.194;9.142;2023-11-21T01:39:42;8.38;;;6.03;;
79130;SDS011;72396;45.194;9.142;2023-11-21T01:42:10;8.63;;;5.47;;
79130;SDS011;72396;45.194;9.142;2023-11-21T01:44:37;7.55;;;5.55;;
79130;SDS011;72396;45.194;9.142;2023-11-21T01:47:03;8.57;;;6.15;;
79130;SDS011;72396;45.194;9.142;2023-11-21T01:49:34;8.55;;;6.30;;
79130;SDS011;72396;45.194;9.142;2023-11-21T01:52:00;7.68;;;5.50;;
79130;SDS011;72396;45.194;9.142;2023-11-21T01:54:26;7.50;;;5.32;;
79130;SDS011;72396;45.194;9.142;2023-11-21T01:56:54;7.78;;;5.15;;
79130;SDS011;72396;45.194;9.142;2023-11-21T01:59:20;7.40;;;5.40;;
79130;SDS011;72396;45.194;9.142;2023-11-21T02:01:49;9.05;;;5.75;;
79130;SDS011;72396;45.194;9.142;2023-11-21T02:04:15;8.82;;;5.22;;
79130;SDS011;72396;45.194;9.142;2023-11-21T02:06:40;7.93;;;5.15;;
79130;SDS011;72396;45.194;9.142;2023-11-21T02:09:06;8.77;;;5.93;;
79130;SDS011;72396;45.194;9.142;2023-11-21T02:11:31;8.30;;;6.22;;
79130;SDS011;72396;45.194;9.142;2023-11-21T02:13:59;9.63;;;5.97;;
79130;SDS011;72396;45.194;9.142;2023-11-21T02:16:25;9.00;;;6.07;;
79130;SDS011;72396;45.194;9.142;2023-11-21T02:18:52;6.85;;;5.38;;
79130;SDS011;72396;45.194;9.142;2023-11-21T02:21:17;9.27;;;5.38;;
79130;SDS011;72396;45.194;9.142;2023-11-21T02:23:44;7.82;;;5.45;;
79130;SDS011;72396;45.194;9.142;2023-11-21T02:26:11;8.18;;;6.07;;
79130;SDS011;72396;45.194;9.142;2023-11-21T02:28:37;7.65;;;5.22;;
79130;SDS011;72396;45.194;9.142;2023-11-21T02:31:03;7.65;;;5.70;;
79130;SDS011;72396;45.194;9.142;2023-11-21T02:33:29;7.57;;;5.72;;
79130;SDS011;72396;45.194;9.142;2023-11-21T02:35:58;9.23;;;5.47;;
79130;SDS011;72396;45.194;9.142;2023-11-21T02:38:24;7.47;;;5.53;;
79130;SDS011;72396;45.194;9.142;2023-11-21T02:40:49;7.35;;;5.60;;
79130;SDS011;72396;45.194;9.142;2023-11-21T02:43:15;7.45;;;6.03;;
79130;SDS011;72396;45.194;9.142;2023-11-21T02:45:40;8.20;;;6.22;;
79130;SDS011;72396;45.194;9.142;2023-11-21T02:48:06;6.65;;;5.50;;
79130;SDS011;72396;45.194;9.142;2023-11-21T02:50:32;8.20;;;5.28;;
79130;SDS011;72396;45.194;9.142;2023-11-21T02:52:57;8.40;;;5.57;;
79130;SDS011;72396;45.194;9.142;2023-11-21T02:55:25;7.03;;;5.45;;
79130;SDS011;72396;45.194;9.142;2023-11-21T02:57:51;8.45;;;5.78;;
79130;SDS011;72396;45.194;9.142;2023-11-21T03:00:17;8.93;;;6.10;;
79130;SDS011;72396;45.194;9.142;2023-11-21T03:02:43;8.93;;;5.72;;
79130;SDS011;72396;45.194;9.142;2023-11-21T03:05:08;7.30;;;5.53;;
79130;SDS011;72396;45.194;9.142;2023-11-21T03:07:34;9.85;;;5.72;;
79130;SDS011;72396;45.194;9.142;2023-11-21T03:10:00;7.35;;;5.32;;
79130;SDS011;72396;45.194;9.142;2023-11-21T03:12:25;7.88;;;5.53;;
79130;SDS011;72396;45.194;9.142;2023-11-21T03:14:51;8.50;;;5.78;;
79130;SDS011;72396;45.194;9.142;2023-11-21T03:17:16;7.95;;;5.35;;
79130;SDS011;72396;45.194;9.142;2023-11-21T03:19:42;8.05;;;5.93;;
79130;SDS011;72396;45.194;9.142;2023-11-21T03:22:07;9.23;;;5.60;;
79130;SDS011;72396;45.194;9.142;2023-11-21T03:24:33;6.95;;;5.35;;
79130;SDS011;72396;45.194;9.142;2023-11-21T03:26:59;7.07;;;5.15;;
79130;SDS011;72396;45.194;9.142;2023-11-21T03:29:25;6.55;;;5.38;;
79130;SDS011;72396;45.194;9.142;2023-11-21T03:31:51;7.60;;;5.63;;
79130;SDS011;72396;45.194;9.142;2023-11-21T03:34:23;6.85;;;4.88;;
79130;SDS011;72396;45.194;9.142;2023-11-21T03:36:53;8.15;;;5.57;;
79130;SDS011;72396;45.194;9.142;2023-11-21T03:39:19;7.35;;;5.53;;
79130;SDS011;72396;45.194;9.142;2023-11-21T03:41:46;8.15;;;5.28;;
79130;SDS011;72396;45.194;9.142;2023-11-21T03:44:11;8.75;;;5.80;;
79130;SDS011;72396;45.194;9.142;2023-11-21T03:46:37;8.38;;;5.20;;
79130;SDS011;72396;45.194;9.142;2023-11-21T03:49:03;8.57;;;4.70;;
79130;SDS011;72396;45.194;9.142;2023-11-21T03:51:28;7.03;;;5.20;;
79130;SDS011;72396;45.194;9.142;2023-11-21T03:53:53;7.50;;;5.20;;
79130;SDS011;72396;45.194;9.142;2023-11-21T03:56:19;6.45;;;4.80;;
79130;SDS011;72396;45.194;9.142;2023-11-21T03:58:47;8.93;;;5.22;;
79130;SDS011;72396;45.194;9.142;2023-11-21T04:01:18;7.40;;;5.15;;
79130;SDS011;72396;45.194;9.142;2023-11-21T04:03:46;7.03;;;5.25;;
79130;SDS011;72396;45.194;9.142;2023-11-21T04:06:12;7.30;;;5.40;;
79130;SDS011;72396;45.194;9.142;2023-11-21T04:08:37;7.68;;;5.30;;
79130;SDS011;72396;45.194;9.142;2023-11-21T04:11:02;7.55;;;5.47;;
79130;SDS011;72396;45.194;9.142;2023-11-21T04:13:29;7.75;;;4.85;;
79130;SDS011;72396;45.194;9.142;2023-11-21T04:15:55;7.25;;;5.40;;
79130;SDS011;72396;45.194;9.142;2023-11-21T04:18:20;7.70;;;5.07;;
79130;SDS011;72396;45.194;9.142;2023-11-21T04:20:46;8.13;;;5.82;;
79130;SDS011;72396;45.194;9.142;2023-11-21T04:23:13;7.95;;;5.32;;
79130;SDS011;72396;45.194;9.142;2023-11-21T04:25:38;7.63;;;4.70;;
79130;SDS011;72396;45.194;9.142;2023-11-21T04:28:04;8.95;;;5.18;;
79130;SDS011;72396;45.194;9.142;2023-11-21T04:30:29;6.30;;;4.65;;
79130;SDS011;72396;45.194;9.142;2023-11-21T04:32:54;7.55;;;4.88;;
79130;SDS011;72396;45.194;9.142;2023-11-21T04:35:20;7.50;;;5.00;;
79130;SDS011;72396;45.194;9.142;2023-11-21T04:37:45;6.90;;;4.90;;
79130;SDS011;72396;45.194;9.142;2023-11-21T04:40:11;6.60;;;4.97;;
79130;SDS011;72396;45.194;9.142;2023-11-21T04:42:36;9.20;;;5.75;;
79130;SDS011;72396;45.194;9.142;2023-11-21T04:45:03;7.38;;;5.20;;
79130;SDS011;72396;45.194;9.142;2023-11-21T04:47:36;7.30;;;5.05;;
79130;SDS011;72396;45.194;9.142;2023-11-21T04:50:02;7.18;;;4.68;;
79130;SDS011;72396;45.194;9.142;2023-11-21T04:52:28;6.90;;;5.22;;
79130;SDS011;72396;45.194;9.142;2023-11-21T04:54:54;6.68;;;5.00;;
79130;SDS011;72396;45.194;9.142;2023-11-21T04:57:19;6.70;;;4.40;;
79130;SDS011;72396;45.194;9.142;2023-11-21T04:59:45;7.32;;;4.55;;
79130;SDS011;72396;45.194;9.142;2023-11-21T05:02:11;6.57;;;4.88;;
79130;SDS011;72396;45.194;9.142;2023-11-21T05:04:37;6.20;;;4.45;;
79130;SDS011;72396;45.194;9.142;2023-11-21T05:07:02;8.57;;;5.20;;
79130;SDS011;72396;45.194;9.142;2023-11-21T05:09:28;6.30;;;4.70;;
79130;SDS011;72396;45.194;9.142;2023-11-21T05:11:56;9.18;;;5.20;;
79130;SDS011;72396;45.194;9.142;2023-11-21T05:14:22;7.00;;;4.65;;
79130;SDS011;72396;45.194;9.142;2023-11-21T05:16:47;7.72;;;5.40;;
79130;SDS011;72396;45.194;9.142;2023-11-21T05:19:13;7.18;;;5.38;;
79130;SDS011;72396;45.194;9.142;2023-11-21T05:21:38;9.75;;;5.50;;
79130;SDS011;72396;45.194;9.142;2023-11-21T05:24:04;8.20;;;5.40;;
79130;SDS011;72396;45.194;9.142;2023-11-21T05:26:30;7.82;;;5.45;;
79130;SDS011;72396;45.194;9.142;2023-11-21T05:28:56;7.22;;;5.43;;
79130;SDS011;72396;45.194;9.142;2023-11-21T05:31:21;8.27;;;5.78;;
79130;SDS011;72396;45.194;9.142;2023-11-21T05:33:47;10.05;;;5.75;;
79130;SDS011;72396;45.194;9.142;2023-11-21T05:36:12;6.57;;;4.93;;
79130;SDS011;72396;45.194;9.142;2023-11-21T05:38:38;6.70;;;4.68;;
79130;SDS011;72396;45.194;9.142;2023-11-21T05:41:03;8.90;;;5.95;;
79130;SDS011;72396;45.194;9.142;2023-11-21T05:43:29;7.10;;;4.72;;
79130;SDS011;72396;45.194;9.142;2023-11-21T05:45:55;7.00;;;4.93;;
79130;SDS011;72396;45.194;9.142;2023-11-21T05:48:21;31.58;;;19.38;;
79130;SDS011;72396;45.194;9.142;2023-11-21T05:50:46;24.85;;;14.20;;
79130;SDS011;72396;45.194;9.142;2023-11-21T05:53:13;15.02;;;10.80;;
79130;SDS011;72396;45.194;9.142;2023-11-21T05:55:40;14.95;;;9.40;;
79130;SDS011;72396;45.194;9.142;2023-11-21T05:58:06;13.63;;;9.82;;
79130;SDS011;72396;45.194;9.142;2023-11-21T06:00:32;15.13;;;9.90;;
79130;SDS011;72396;45.194;9.142;2023-11-21T06:02:58;14.68;;;9.25;;
79130;SDS011;72396;45.194;9.142;2023-11-21T06:05:24;17.10;;;9.98;;
79130;SDS011;72396;45.194;9.142;2023-11-21T06:07:50;14.60;;;9.57;;
79130;SDS011;72396;45.194;9.142;2023-11-21T06:10:17;12.68;;;9.27;;
79130;SDS011;72396;45.194;9.142;2023-11-21T06:12:44;18.60;;;11.73;;
79130;SDS011;72396;45.194;9.142;2023-11-21T06:15:10;19.33;;;11.02;;
79130;SDS011;72396;45.194;9.142;2023-11-21T06:17:40;16.42;;;10.35;;
79130;SDS011;72396;45.194;9.142;2023-11-21T06:20:07;13.18;;;9.35;;
79130;SDS011;72396;45.194;9.142;2023-11-21T06:22:40;10.65;;;7.03;;
79130;SDS011;72396;45.194;9.142;2023-11-21T06:25:09;9.27;;;6.07;;
79130;SDS011;72396;45.194;9.142;2023-11-21T06:27:43;8.55;;;6.22;;
79130;SDS011;72396;45.194;9.142;2023-11-21T06:30:10;9.15;;;6.15;;
79130;SDS011;72396;45.194;9.142;2023-11-21T06:32:36;10.15;;;5.82;;
79130;SDS011;72396;45.194;9.142;2023-11-21T06:35:03;7.72;;;5.60;;
79130;SDS011;72396;45.194;9.142;2023-11-21T06:37:29;9.00;;;5.85;;
79130;SDS011;72396;45.194;9.142;2023-11-21T06:39:55;7.47;;;5.07;;
79130;SDS011;72396;45.194;9.142;2023-11-21T06:42:21;8.20;;;5.25;;
79130;SDS011;72396;45.194;9.142;2023-11-21T06:44:47;7.53;;;4.97;;
79130;SDS011;72396;45.194;9.142;2023-11-21T06:47:13;6.28;;;5.05;;
79130;SDS011;72396;45.194;9.142;2023-11-21T06:49:40;7.03;;;4.95;;
79130;SDS011;72396;45.194;9.142;2023-11-21T06:52:06;6.60;;;4.63;;
79130;SDS011;72396;45.194;9.142;2023-11-21T06:54:31;8.43;;;4.90;;
79130;SDS011;72396;45.194;9.142;2023-11-21T06:56:57;7.28;;;4.90;;
79130;SDS011;72396;45.194;9.142;2023-11-21T06:59:23;7.13;;;4.85;;
79130;SDS011;72396;45.194;9.142;2023-11-21T07:01:49;7.55;;;4.63;;
79130;SDS011;72396;45.194;9.142;2023-11-21T07:04:15;8.45;;;4.63;;
79130;SDS011;72396;45.194;9.142;2023-11-21T07:06:40;7.15;;;4.82;;
79130;SDS011;72396;45.194;9.142;2023-11-21T07:09:06;6.95;;;4.60;;
79130;SDS011;72396;45.194;9.142;2023-11-21T07:11:33;7.38;;;4.57;;
79130;SDS011;72396;45.194;9.142;2023-11-21T07:13:59;7.03;;;4.53;;
79130;SDS011;72396;45.194;9.142;2023-11-21T07:16:24;6.05;;;4.15;;
79130;SDS011;72396;45.194;9.142;2023-11-21T07:18:51;6.38;;;4.13;;
79130;SDS011;72396;45.194;9.142;2023-11-21T07:21:17;8.50;;;4.70;;
79130;SDS011;72396;45.194;9.142;2023-11-21T07:23:42;7.30;;;4.80;;
79130;SDS011;72396;45.194;9.142;2023-11-21T07:26:07;7.38;;;4.50;;
79130;SDS011;72396;45.194;9.142;2023-11-21T07:28:35;5.68;;;4.00;;
79130;SDS011;72396;45.194;9.142;2023-11-21T07:31:00;8.27;;;4.55;;
79130;SDS011;72396;45.194;9.142;2023-11-21T07:33:26;6.05;;;4.47;;
79130;SDS011;72396;45.194;9.142;2023-11-21T07:35:52;6.55;;;4.72;;
79130;SDS011;72396;45.194;9.142;2023-11-21T07:38:17;7.07;;;4.70;;
79130;SDS011;72396;45.194;9.142;2023-11-21T07:40:43;7.30;;;4.93;;
79130;SDS011;72396;45.194;9.142;2023-11-21T07:43:08;10.38;;;5.32;;
79130;SDS011;72396;45.194;9.142;2023-11-21T07:45:34;7.93;;;4.75;;
79130;SDS011;72396;45.194;9.142;2023-11-21T07:47:59;10.65;;;5.32;;
79130;SDS011;72396;45.194;9.142;2023-11-21T07:50:25;8.10;;;5.60;;
79130;SDS011;72396;45.194;9.142;2023-11-21T07:52:52;8.48;;;5.20;;
79130;SDS011;72396;45.194;9.142;2023-11-21T07:55:19;8.10;;;5.82;;
79130;SDS011;72396;45.194;9.142;2023-11-21T07:57:44;8.90;;;5.90;;
79130;SDS011;72396;45.194;9.142;2023-11-21T08:00:10;10.18;;;6.60;;
79130;SDS011;72396;45.194;9.142;2023-11-21T08:02:37;8.88;;;6.10;;
79130;SDS011;72396;45.194;9.142;2023-11-21T08:05:11;11.50;;;5.88;;
79130;SDS011;72396;45.194;9.142;2023-11-21T08:07:37;9.75;;;5.40;;
79130;SDS011;72396;45.194;9.142;2023-11-21T08:10:02;9.23;;;5.13;;
79130;SDS011;72396;45.194;9.142;2023-11-21T08:12:29;7.05;;;5.53;;
79130;SDS011;72396;45.194;9.142;2023-11-21T08:14:55;9.52;;;5.15;;
79130;SDS011;72396;45.194;9.142;2023-11-21T08:17:20;8.13;;;5.10;;
79130;SDS011;72396;45.194;9.142;2023-11-21T08:19:46;8.02;;;5.25;;
79130;SDS011;72396;45.194;9.142;2023-11-21T08:22:14;8.65;;;5.05;;
79130;SDS011;72396;45.194;9.142;2023-11-21T08:24:41;6.82;;;4.55;;
79130;SDS011;72396;45.194;9.142;2023-11-21T08:27:06;7.35;;;5.22;;
79130;SDS011;72396;45.194;9.142;2023-11-21T08:29:32;7.50;;;4.93;;
79130;SDS011;72396;45.194;9.142;2023-11-21T08:31:57;8.38;;;5.05;;
79130;SDS011;72396;45.194;9.142;2023-11-21T08:34:22;8.25;;;4.70;;
79130;SDS011;72396;45.194;9.142;2023-11-21T08:36:48;7.63;;;4.88;;
79130;SDS011;72396;45.194;9.142;2023-11-21T08:39:16;7.22;;;4.80;;
79130;SDS011;72396;45.194;9.142;2023-11-21T08:41:43;7.28;;;4.85;;
79130;SDS011;72396;45.194;9.142;2023-11-21T08:44:09;8.15;;;5.15;;
79130;SDS011;72396;45.194;9.142;2023-11-21T08:46:34;6.60;;;4.57;;
79130;SDS011;72396;45.194;9.142;2023-11-21T08:49:01;7.40;;;5.20;;
79130;SDS011;72396;45.194;9.142;2023-11-21T08:51:27;9.00;;;5.40;;
79130;SDS011;72396;45.194;9.142;2023-11-21T08:53:52;6.65;;;4.93;;
79130;SDS011;72396;45.194;9.142;2023-11-21T08:56:18;8.02;;;5.25;;
79130;SDS011;72396;45.194;9.142;2023-11-21T08:58:45;7.10;;;5.25;;
79130;SDS011;72396;45.194;9.142;2023-11-21T09:01:11;8.32;;;5.10;;
79130;SDS011;72396;45.194;9.142;2023-11-21T09:03:37;6.10;;;4.25;;
79130;SDS011;72396;45.194;9.142;2023-11-21T09:06:02;6.93;;;4.28;;
79130;SDS011;72396;45.194;9.142;2023-11-21T09:08:28;7.80;;;4.47;;
79130;SDS011;72396;45.194;9.142;2023-11-21T09:10:54;6.95;;;4.90;;
79130;SDS011;72396;45.194;9.142;2023-11-21T09:13:20;11.98;;;8.18;;
79130;SDS011;72396;45.194;9.142;2023-11-21T09:15:45;7.68;;;5.13;;
79130;SDS011;72396;45.194;9.142;2023-11-21T09:18:14;8.07;;;5.47;;
79130;SDS011;72396;45.194;9.142;2023-11-21T09:20:40;10.77;;;5.45;;
79130;SDS011;72396;45.194;9.142;2023-11-21T09:23:06;7.03;;;5.30;;
79130;SDS011;72396;45.194;9.142;2023-11-21T09:25:32;6.53;;;4.72;;
79130;SDS011;72396;45.194;9.142;2023-11-21T09:27:57;7.65;;;4.95;;
79130;SDS011;72396;45.194;9.142;2023-11-21T09:30:23;7.82;;;4.85;;
79130;SDS011;72396;45.194;9.142;2023-11-21T09:32:49;7.75;;;4.90;;
79130;SDS011;72396;45.194;9.142;2023-11-21T09:35:15;7.05;;;4.80;;
79130;SDS011;72396;45.194;9.142;2023-11-21T09:37:43;8.00;;;4.85;;
79130;SDS011;72396;45.194;9.142;2023-11-21T09:40:10;8.90;;;4.95;;
79130;SDS011;72396;45.194;9.142;2023-11-21T09:42:39;9.43;;;5.07;;
79130;SDS011;72396;45.194;9.142;2023-11-21T09:45:27;7.72;;;5.18;;
79130;SDS011;72396;45.194;9.142;2023-11-21T09:47:56;11.50;;;4.82;;
79130;SDS011;72396;45.194;9.142;2023-11-21T09:50:22;6.43;;;4.45;;
79130;SDS011;72396;45.194;9.142;2023-11-21T09:52:58;6.72;;;5.00;;
79130;SDS011;72396;45.194;9.142;2023-11-21T09:55:26;6.95;;;5.05;;
79130;SDS011;72396;45.194;9.142;2023-11-21T09:57:53;6.70;;;4.80;;
79130;SDS011;72396;45.194;9.142;2023-11-21T10:00:20;6.88;;;4.88;;
79130;SDS011;72396;45.194;9.142;2023-11-21T10:02:48;7.95;;;5.05;;
79130;SDS011;72396;45.194;9.142;2023-11-21T10:05:14;14.70;;;9.25;;
79130;SDS011;72396;45.194;9.142;2023-11-21T10:07:42;9.70;;;6.55;;
79130;SDS011;72396;45.194;9.142;2023-11-21T10:10:09;9.27;;;5.70;;
79130;SDS011;72396;45.194;9.142;2023-11-21T10:12:35;9.30;;;5.13;;
79130;SDS011;72396;45.194;9.142;2023-11-21T10:15:03;8.07;;;5.15;;
79130;SDS011;72396;45.194;9.142;2023-11-21T10:17:34;13.05;;;6.30;;
79130;SDS011;72396;45.194;9.142;2023-11-21T10:20:08;14.63;;;5.80;;
79130;SDS011;72396;45.194;9.142;2023-11-21T10:22:38;8.65;;;5.53;;
79130;SDS011;72396;45.194;9.142;2023-11-21T10:25:06;8.98;;;5.70;;
79130;SDS011;72396;45.194;9.142;2023-11-21T10:27:33;9.77;;;6.20;;
79130;SDS011;72396;45.194;9.142;2023-11-21T10:30:00;8.35;;;5.38;;
79130;SDS011;72396;45.194;9.142;2023-11-21T10:32:28;8.25;;;5.32;;
79130;SDS011;72396;45.194;9.142;2023-11-21T10:34:57;9.65;;;5.60;;
79130;SDS011;72396;45.194;9.142;2023-11-21T10:37:22;7.50;;;5.07;;
79130;SDS011;72396;45.194;9.142;2023-11-21T10:39:48;9.85;;;5.20;;
79130;SDS011;72396;45.194;9.142;2023-11-21T10:42:14;7.47;;;5.10;;
79130;SDS011;72396;45.194;9.142;2023-11-21T10:44:41;6.75;;;4.97;;
79130;SDS011;72396;45.194;9.142;2023-11-21T10:47:09;6.05;;;5.05;;
79130;SDS011;72396;45.194;9.142;2023-11-21T10:49:36;9.05;;;5.28;;
79130;SDS011;72396;45.194;9.142;2023-11-21T10:52:02;6.82;;;4.80;;
79130;SDS011;72396;45.194;9.142;2023-11-21T10:54:29;8.50;;;4.82;;
79130;SDS011;72396;45.194;9.142;2023-11-21T10:56:58;7.43;;;4.90;;
79130;SDS011;72396;45.194;9.142;2023-11-21T10:59:29;7.03;;;4.80;;
79130;SDS011;72396;45.194;9.142;2023-11-21T11:01:57;8.13;;;5.63;;
79130;SDS011;72396;45.194;9.142;2023-11-21T11:04:23;7.25;;;4.88;;
79130;SDS011;72396;45.194;9.142;2023-11-21T11:06:56;7.53;;;4.68;;
79130;SDS011;72396;45.194;9.142;2023-11-21T11:11:48;7.20;;;5.07;;
79130;SDS011;72396;45.194;9.142;2023-11-21T11:14:14;9.25;;;5.05;;
79130;SDS011;72396;45.194;9.142;2023-11-21T11:16:44;6.53;;;5.05;;
79130;SDS011;72396;45.194;9.142;2023-11-21T11:19:10;7.15;;;5.15;;
79130;SDS011;72396;45.194;9.142;2023-11-21T11:28:08;20.88;;;9.43;;
79130;SDS011;72396;45.194;9.142;2023-11-21T11:30:36;11.45;;;6.20;;
79130;SDS011;72396;45.194;9.142;2023-11-21T11:36:00;14.90;;;7.85;;
79130;SDS011;72396;45.194;9.142;2023-11-21T11:38:31;14.80;;;7.75;;
79130;SDS011;72396;45.194;9.142;2023-11-21T11:40:59;21.58;;;12.60;;
79130;SDS011;72396;45.194;9.142;2023-11-21T11:43:29;17.70;;;9.18;;
79130;SDS011;72396;45.194;9.142;2023-11-21T11:45:56;14.05;;;7.32;;
79130;SDS011;72396;45.194;9.142;2023-11-21T11:48:22;15.20;;;7.43;;
79130;SDS011;72396;45.194;9.142;2023-11-21T11:53:43;19.40;;;9.60;;
79130;SDS011;72396;45.194;9.142;2023-11-21T11:58:48;17.20;;;7.35;;
79130;SDS011;72396;45.194;9.142;2023-11-21T12:01:16;15.85;;;7.85;;
79130;SDS011;72396;45.194;9.142;2023-11-21T12:03:44;13.70;;;7.65;;
79130;SDS011;72396;45.194;9.142;2023-11-21T12:06:09;13.57;;;7.28;;
79130;SDS011;72396;45.194;9.142;2023-11-21T12:08:36;10.50;;;7.05;;
79130;SDS011;72396;45.194;9.142;2023-11-21T12:11:03;19.70;;;8.15;;
79130;SDS011;72396;45.194;9.142;2023-11-21T12:13:29;16.95;;;9.05;;
79130;SDS011;72396;45.194;9.142;2023-11-21T12:15:55;16.38;;;8.35;;
79130;SDS011;72396;45.194;9.142;2023-11-21T12:18:20;13.90;;;8.25;;
79130;SDS011;72396;45.194;9.142;2023-11-21T12:20:46;15.48;;;8.27;;
79130;SDS011;72396;45.194;9.142;2023-11-21T12:23:13;13.68;;;6.75;;
79130;SDS011;72396;45.194;9.142;2023-11-21T12:25:41;11.75;;;6.70;;
79130;SDS011;72396;45.194;9.142;2023-11-21T12:28:07;12.02;;;6.38;;
79130;SDS011;72396;45.194;9.142;2023-11-21T12:30:33;13.18;;;6.45;;
79130;SDS011;72396;45.194;9.142;2023-11-21T12:33:03;11.07;;;7.47;;
79130;SDS011;72396;45.194;9.142;2023-11-21T12:35:32;15.00;;;7.50;;
79130;SDS011;72396;45.194;9.142;2023-11-21T12:38:01;14.25;;;7.35;;
79130;SDS011;72396;45.194;9.142;2023-11-21T12:40:28;12.50;;;7.22;;
79130;SDS011;72396;45.194;9.142;2023-11-21T12:42:57;12.18;;;6.70;;
79130;SDS011;72396;45.194;9.142;2023-11-21T12:45:25;16.27;;;7.30;;
79130;SDS011;72396;45.194;9.142;2023-11-21T12:48:04;12.38;;;6.95;;
79130;SDS011;72396;45.194;9.142;2023-11-21T12:50:36;10.45;;;6.18;;
79130;SDS011;72396;45.194;9.142;2023-11-21T12:53:03;8.55;;;5.60;;
79130;SDS011;72396;45.194;9.142;2023-11-21T12:55:30;12.50;;;6.93;;
79130;SDS011;72396;45.194;9.142;2023-11-21T12:57:56;13.57;;;6.78;;
79130;SDS011;72396;45.194;9.142;2023-11-21T13:00:34;13.77;;;7.18;;
79130;SDS011;72396;45.194;9.142;2023-11-21T13:03:02;11.23;;;7.20;;
79130;SDS011;72396;45.194;9.142;2023-11-21T13:05:30;11.05;;;5.95;;
79130;SDS011;72396;45.194;9.142;2023-11-21T13:07:58;10.32;;;5.97;;
79130;SDS011;72396;45.194;9.142;2023-11-21T13:10:27;9.90;;;5.50;;
79130;SDS011;72396;45.194;9.142;2023-11-21T13:12:56;19.08;;;9.32;;
79130;SDS011;72396;45.194;9.142;2023-11-21T13:15:23;15.32;;;8.07;;
79130;SDS011;72396;45.194;9.142;2023-11-21T13:17:49;14.90;;;7.45;;
79130;SDS011;72396;45.194;9.142;2023-11-21T13:20:16;12.65;;;5.72;;
79130;SDS011;72396;45.194;9.142;2023-11-21T13:23:00;9.82;;;6.10;;
79130;SDS011;72396;45.194;9.142;2023-11-21T13:25:26;14.65;;;7.20;;
79130;SDS011;72396;45.194;9.142;2023-11-21T13:27:55;14.55;;;7.72;;
79130;SDS011;72396;45.194;9.142;2023-11-21T13:30:22;12.63;;;7.50;;
79130;SDS011;72396;45.194;9.142;2023-11-21T13:32:51;11.07;;;5.85;;
79130;SDS011;72396;45.194;9.142;2023-11-21T13:35:17;11.27;;;5.50;;
79130;SDS011;72396;45.194;9.142;2023-11-21T13:37:49;12.20;;;6.55;;
79130;SDS011;72396;45.194;9.142;2023-11-21T13:40:20;10.90;;;6.70;;
79130;SDS011;72396;45.194;9.142;2023-11-21T13:42:50;15.68;;;6.03;;
79130;SDS011;72396;45.194;9.142;2023-11-21T13:45:18;10.77;;;5.70;;
79130;SDS011;72396;45.194;9.142;2023-11-21T13:47:48;12.07;;;6.15;;
79130;SDS011;72396;45.194;9.142;2023-11-21T13:50:16;10.40;;;6.25;;
79130;SDS011;72396;45.194;9.142;2023-11-21T13:52:47;9.07;;;5.38;;
79130;SDS011;72396;45.194;9.142;2023-11-21T13:55:13;11.98;;;5.88;;
79130;SDS011;72396;45.194;9.142;2023-11-21T13:57:41;12.23;;;5.47;;
79130;SDS011;72396;45.194;9.142;2023-11-21T14:00:12;11.20;;;5.45;;
79130;SDS011;72396;45.194;9.142;2023-11-21T14:02:58;10.70;;;5.53;;
79130;SDS011;72396;45.194;9.142;2023-11-21T14:05:29;10.48;;;5.28;;
79130;SDS011;72396;45.194;9.142;2023-11-21T14:07:56;11.07;;;5.35;;
79130;SDS011;72396;45.194;9.142;2023-11-21T14:10:28;10.10;;;5.60;;
79130;SDS011;72396;45.194;9.142;2023-11-21T14:13:02;8.32;;;5.53;;
79130;SDS011;72396;45.194;9.142;2023-11-21T14:15:27;9.30;;;4.93;;
79130;SDS011;72396;45.194;9.142;2023-11-21T14:17:56;12.80;;;5.78;;
79130;SDS011;72396;45.194;9.142;2023-11-21T14:20:21;8.45;;;5.28;;
79130;SDS011;72396;45.194;9.142;2023-11-21T14:22:47;9.82;;;5.28;;
79130;SDS011;72396;45.194;9.142;2023-11-21T14:25:12;14.63;;;5.57;;
79130;SDS011;72396;45.194;9.142;2023-11-21T14:27:39;9.13;;;5.57;;
79130;SDS011;72396;45.194;9.142;2023-11-21T14:30:05;8.57;;;4.60;;
79130;SDS011;72396;45.194;9.142;2023-11-21T14:32:31;7.57;;;4.80;;
79130;SDS011;72396;45.194;9.142;2023-11-21T14:34:57;8.13;;;5.07;;
79130;SDS011;72396;45.194;9.142;2023-11-21T14:37:22;8.57;;;5.32;;
79130;SDS011;72396;45.194;9.142;2023-11-21T14:39:48;10.23;;;5.30;;
79130;SDS011;72396;45.194;9.142;2023-11-21T14:42:14;8.30;;;5.15;;
79130;SDS011;72396;45.194;9.142;2023-11-21T14:44:40;7.85;;;5.43;;
79130;SDS011;72396;45.194;9.142;2023-11-21T14:47:07;8.30;;;4.95;;
79130;SDS011;72396;45.194;9.142;2023-11-21T14:49:41;8.88;;;5.25;;
79130;SDS011;72396;45.194;9.142;2023-11-21T14:52:21;7.97;;;4.72;;
79130;SDS011;72396;45.194;9.142;2023-11-21T14:54:59;7.82;;;5.45;;
79130;SDS011;72396;45.194;9.142;2023-11-21T14:57:56;8.52;;;4.75;;
79130;SDS011;72396;45.194;9.142;2023-11-21T15:00:25;9.15;;;5.15;;